Lincoln, Nebraska
Current Conditions -  °F | °C
As of 2:54 PM on Tuesday 21 Oct 2014 (Local Time) from KLNK Reporting Station
Clear Clear  
Wind Chill: 77°   Ceiling: Unl
Heat Index: 78°   Visibility: 10mi
Dew Point: 44°   Wind: 14mph
Humidity: 31%   Direction: 180°S
Pressure: 30.04"   Gusts: NA
Location:  40.81°N, 96.71°W
Report Text: KLNK 211954Z 18012KT 10SM CLR 25/07 A3004 RMK AO2 SLP169 T02500067
Loading
Personal Weather Stations






























Interactive Weather Map New forecast layout! Learn more

10-Day Weather Forecast

Advertisements
Track Severe Weather on mobile